createdAt,value
2018-10-11T00:01:14.620Z,7.47
2018-10-11T00:03:49.018Z,8.00
2018-10-11T00:06:23.681Z,8.17
2018-10-11T00:08:58.291Z,12.00
2018-10-11T00:11:32.818Z,7.10
2018-10-11T00:14:07.662Z,7.30
2018-10-11T00:16:41.988Z,7.17
2018-10-11T00:19:16.589Z,7.30
2018-10-11T00:21:51.188Z,7.67
2018-10-11T00:24:25.758Z,9.07
2018-10-11T00:27:00.517Z,7.50
2018-10-11T00:29:34.759Z,9.23
2018-10-11T00:32:09.313Z,8.53
2018-10-11T00:34:43.971Z,8.33
2018-10-11T00:37:18.674Z,8.43
2018-10-11T00:39:53.140Z,8.90
2018-10-11T00:42:28.068Z,9.40
2018-10-11T00:45:02.633Z,10.60
2018-10-11T00:47:37.081Z,8.67
2018-10-11T00:50:11.789Z,8.00
2018-10-11T00:52:46.585Z,8.33
2018-10-11T00:55:20.920Z,8.57
2018-10-11T00:57:55.419Z,8.53
2018-10-11T01:00:30.190Z,10.10
2018-10-11T01:03:04.466Z,7.80
2018-10-11T01:05:39.045Z,12.20
2018-10-11T01:08:13.765Z,7.77
2018-10-11T01:10:48.202Z,8.47
2018-10-11T01:13:22.788Z,8.87
2018-10-11T01:15:57.454Z,7.10
2018-10-11T01:18:32.097Z,7.90
2018-10-11T01:21:07.129Z,11.17
2018-10-11T01:23:42.287Z,12.83
2018-10-11T01:26:16.869Z,11.90
2018-10-11T01:28:51.625Z,12.37
2018-10-11T01:31:26.203Z,9.03
2018-10-11T01:34:00.623Z,8.10
2018-10-11T01:36:35.069Z,8.07
2018-10-11T01:39:09.634Z,9.07
2018-10-11T01:41:44.369Z,9.90
2018-10-11T01:44:18.898Z,8.97
2018-10-11T01:46:53.408Z,7.63
2018-10-11T01:49:27.960Z,9.80
2018-10-11T01:52:02.805Z,10.90
2018-10-11T01:54:37.079Z,9.83
2018-10-11T01:57:11.718Z,9.60
2018-10-11T01:59:46.320Z,10.63
2018-10-11T02:02:20.949Z,8.90
2018-10-11T02:04:55.428Z,9.23
2018-10-11T02:07:29.929Z,8.87
2018-10-11T02:10:04.475Z,8.63
2018-10-11T02:12:39.366Z,10.40
2018-10-11T02:15:14.541Z,9.70
2018-10-11T02:17:49.016Z,9.17
2018-10-11T02:20:23.593Z,12.47
2018-10-11T02:22:58.169Z,10.43
2018-10-11T02:25:32.924Z,10.67
2018-10-11T02:28:08.086Z,8.57
2018-10-11T02:30:43.021Z,11.50
2018-10-11T02:33:17.627Z,8.80
2018-10-11T02:35:52.293Z,10.03
2018-10-11T02:38:26.973Z,9.83
2018-10-11T02:41:01.522Z,9.70
2018-10-11T02:43:36.206Z,11.93
2018-10-11T02:46:10.816Z,9.33
2018-10-11T02:48:45.424Z,12.20
2018-10-11T02:51:20.506Z,9.13
2018-10-11T02:53:55.725Z,12.27
2018-10-11T02:56:30.348Z,9.63
2018-10-11T02:59:20.919Z,9.63
2018-10-11T03:01:55.622Z,8.23
2018-10-11T03:04:31.295Z,11.00
2018-10-11T03:07:08.789Z,12.87
2018-10-11T03:09:43.244Z,9.20
2018-10-11T03:12:17.616Z,9.43
2018-10-11T03:14:52.231Z,9.40
2018-10-11T03:17:26.793Z,8.70
2018-10-11T03:20:01.289Z,9.07
2018-10-11T03:22:36.009Z,9.57
2018-10-11T03:25:10.458Z,10.60
2018-10-11T03:27:45.077Z,12.70
2018-10-11T03:30:19.503Z,15.10
2018-10-11T03:32:54.148Z,13.83
2018-10-11T03:35:28.759Z,11.70
2018-10-11T03:38:03.549Z,12.00
2018-10-11T03:40:37.953Z,12.00
2018-10-11T03:43:12.566Z,9.73
2018-10-11T03:45:47.401Z,16.10
2018-10-11T03:48:21.633Z,8.97
2018-10-11T03:50:56.436Z,10.43
2018-10-11T03:53:30.733Z,8.90
2018-10-11T03:56:05.819Z,11.47
2018-10-11T03:58:40.866Z,12.37
2018-10-11T04:01:15.562Z,10.13
2018-10-11T04:03:49.937Z,11.43
2018-10-11T04:06:24.438Z,9.93
2018-10-11T04:08:59.008Z,10.53
2018-10-11T04:11:33.717Z,9.60
2018-10-11T04:14:08.173Z,10.80
2018-10-11T04:16:42.768Z,8.97
2018-10-11T04:19:17.309Z,9.10
2018-10-11T04:21:51.807Z,11.40
2018-10-11T04:24:26.360Z,8.33
2018-10-11T04:27:01.031Z,9.90
2018-10-11T04:29:35.387Z,12.50
2018-10-11T04:32:09.958Z,9.30
2018-10-11T04:34:44.580Z,9.50
2018-10-11T04:37:19.360Z,10.37
2018-10-11T04:39:53.557Z,9.27
2018-10-11T04:42:28.208Z,9.47
2018-10-11T04:45:02.832Z,10.47
2018-10-11T04:47:37.381Z,10.80
2018-10-11T04:50:11.807Z,9.80
2018-10-11T04:52:46.469Z,9.40
2018-10-11T04:55:21.054Z,9.53
2018-10-11T04:57:55.882Z,11.90
2018-10-11T05:00:30.507Z,13.30
2018-10-11T05:03:05.023Z,10.40
2018-10-11T05:05:39.858Z,9.77
2018-10-11T05:08:14.054Z,10.93
2018-10-11T05:10:49.591Z,13.27
2018-10-11T05:13:43.582Z,10.10
2018-10-11T05:16:18.057Z,9.40
2018-10-11T05:18:56.545Z,10.00
2018-10-11T05:21:30.912Z,11.53
2018-10-11T05:24:05.794Z,12.53
2018-10-11T05:26:40.802Z,14.70
2018-10-11T05:29:15.290Z,13.87
2018-10-11T05:31:49.893Z,11.40
2018-10-11T05:34:24.532Z,11.70
2018-10-11T05:36:58.818Z,10.90
2018-10-11T05:39:33.579Z,13.10
2018-10-11T05:42:08.190Z,11.03
2018-10-11T05:44:43.489Z,10.90
2018-10-11T05:47:18.521Z,10.50
2018-10-11T05:49:52.872Z,20.37
2018-10-11T05:52:27.645Z,11.70
2018-10-11T05:55:02.789Z,12.77
2018-10-11T05:57:37.367Z,13.93
2018-10-11T06:00:12.450Z,10.60
2018-10-11T06:02:57.359Z,11.50
2018-10-11T06:05:32.082Z,11.10
2018-10-11T06:08:07.185Z,13.23
2018-10-11T06:10:43.440Z,11.17
2018-10-11T06:13:17.898Z,12.33
2018-10-11T06:15:52.383Z,12.63
2018-10-11T06:18:26.970Z,9.93
2018-10-11T06:21:01.485Z,11.57
2018-10-11T06:23:35.797Z,11.20
2018-10-11T06:26:11.004Z,9.83
2018-10-11T06:28:45.930Z,14.23
2018-10-11T06:31:20.492Z,12.70
2018-10-11T06:33:55.597Z,10.37
2018-10-11T06:36:30.849Z,10.10
2018-10-11T06:39:08.097Z,9.50
2018-10-11T06:41:42.923Z,15.07
2018-10-11T06:44:17.682Z,10.60
2018-10-11T06:46:52.507Z,16.73
2018-10-11T06:49:27.633Z,9.33
2018-10-11T06:52:02.177Z,8.03
2018-10-11T06:54:36.700Z,8.87
2018-10-11T06:57:11.236Z,10.00
2018-10-11T06:59:45.847Z,7.13
2018-10-11T07:02:20.438Z,8.77
2018-10-11T07:04:55.056Z,8.70
2018-10-11T07:07:29.564Z,8.17
2018-10-11T07:10:04.393Z,7.73
2018-10-11T07:12:38.837Z,7.00
2018-10-11T07:15:13.238Z,6.60
2018-10-11T07:17:47.709Z,10.50
2018-10-11T07:20:22.384Z,8.00
2018-10-11T07:22:56.769Z,10.30
2018-10-11T07:25:31.389Z,12.00
2018-10-11T07:28:06.120Z,7.60
2018-10-11T07:30:40.734Z,10.77
2018-10-11T07:33:15.270Z,9.67
2018-10-11T07:35:50.090Z,12.70
2018-10-11T07:38:24.361Z,12.37
2018-10-11T07:40:58.956Z,5.67
2018-10-11T07:43:33.412Z,5.40
2018-10-11T07:46:08.055Z,5.80
2018-10-11T07:48:42.805Z,4.87
2018-10-11T07:51:17.149Z,5.50
2018-10-11T07:53:51.664Z,8.10
2018-10-11T07:56:26.428Z,5.57
2018-10-11T07:59:01.397Z,8.00
2018-10-11T08:01:36.513Z,7.00
2018-10-11T08:04:11.180Z,4.97
2018-10-11T08:06:45.816Z,5.13
2018-10-11T08:09:20.569Z,4.37
2018-10-11T08:11:55.195Z,10.20
2018-10-11T08:14:30.289Z,5.73
2018-10-11T08:17:05.842Z,7.70
2018-10-11T08:19:40.395Z,5.80
2018-10-11T08:22:15.205Z,6.50
2018-10-11T08:24:50.072Z,21.40
2018-10-11T08:27:24.782Z,4.87
2018-10-11T08:30:00.168Z,4.43
2018-10-11T08:32:34.968Z,5.37
2018-10-11T08:35:09.398Z,6.93
2018-10-11T08:37:43.987Z,7.00
2018-10-11T08:40:18.623Z,5.20
2018-10-11T08:42:53.481Z,8.20
2018-10-11T08:45:28.093Z,7.87
2018-10-11T08:48:02.525Z,4.80
2018-10-11T08:50:37.339Z,4.20
2018-10-11T08:53:12.115Z,6.30
2018-10-11T08:55:46.461Z,4.90
2018-10-11T08:58:20.909Z,7.90
2018-10-11T09:00:55.545Z,8.60
2018-10-11T09:03:30.381Z,7.43
2018-10-11T09:06:04.880Z,3.93
2018-10-11T09:08:39.051Z,5.70
2018-10-11T09:11:13.615Z,4.17
2018-10-11T09:13:48.273Z,3.53
2018-10-11T09:16:22.586Z,3.60
2018-10-11T09:18:57.259Z,3.90
2018-10-11T09:21:32.173Z,3.97
2018-10-11T09:24:06.650Z,9.70
2018-10-11T09:26:41.174Z,3.83
2018-10-11T09:29:15.539Z,5.60
2018-10-11T09:31:50.910Z,4.73
2018-10-11T09:34:25.751Z,4.80
2018-10-11T09:37:00.593Z,3.97
2018-10-11T09:39:35.136Z,2.90
2018-10-11T09:42:09.394Z,3.23
2018-10-11T09:44:44.993Z,6.20
2018-10-11T09:47:19.965Z,4.20
2018-10-11T09:49:54.242Z,4.00
2018-10-11T09:52:29.259Z,4.73
2018-10-11T09:55:03.590Z,7.40
2018-10-11T09:57:38.559Z,3.27
2018-10-11T10:00:19.394Z,3.23
2018-10-11T10:02:53.985Z,3.63
2018-10-11T10:05:28.801Z,3.20
2018-10-11T10:08:03.255Z,4.47
2018-10-11T10:10:37.818Z,3.57
2018-10-11T10:13:13.085Z,2.97
2018-10-11T10:15:47.990Z,4.00
2018-10-11T10:18:22.530Z,4.10
2018-10-11T10:20:57.380Z,2.97
2018-10-11T10:23:31.628Z,3.20
2018-10-11T10:26:06.409Z,2.97
2018-10-11T10:28:40.711Z,8.23
2018-10-11T10:31:15.134Z,3.70
2018-10-11T10:33:49.708Z,4.90
2018-10-11T10:36:24.102Z,5.40
2018-10-11T10:38:58.653Z,4.30
2018-10-11T10:41:33.297Z,3.10
2018-10-11T10:44:07.990Z,9.23
2018-10-11T10:46:51.123Z,14.07
2018-10-11T10:49:26.097Z,7.00
2018-10-11T10:52:00.735Z,4.53
2018-10-11T10:54:35.805Z,5.67
2018-10-11T10:57:10.909Z,3.23
2018-10-11T10:59:45.410Z,4.67
2018-10-11T11:02:20.323Z,6.50
2018-10-11T11:04:54.590Z,5.83
2018-10-11T11:07:29.271Z,3.37
2018-10-11T11:10:04.282Z,4.83
2018-10-11T11:12:39.321Z,7.53
2018-10-11T11:15:13.981Z,3.67
2018-10-11T11:17:48.705Z,6.20
2018-10-11T11:20:23.406Z,4.90
2018-10-11T11:22:58.014Z,4.50
2018-10-11T11:25:32.825Z,4.10
2018-10-11T11:28:07.157Z,2.80
2018-10-11T11:30:41.678Z,5.03
2018-10-11T11:33:16.220Z,3.43
2018-10-11T11:35:50.791Z,4.53
2018-10-11T11:38:27.354Z,3.13
2018-10-11T11:41:02.086Z,4.23
2018-10-11T11:43:36.761Z,2.77
2018-10-11T11:46:11.446Z,2.53
2018-10-11T11:48:45.951Z,4.00
2018-10-11T11:51:20.615Z,6.87
2018-10-11T11:53:55.407Z,3.57
2018-10-11T11:56:29.646Z,3.10
2018-10-11T11:59:04.758Z,6.40
2018-10-11T12:01:38.966Z,2.97
2018-10-11T12:04:13.494Z,12.97
2018-10-11T12:06:47.935Z,3.47
2018-10-11T12:09:22.791Z,3.20
2018-10-11T12:11:56.977Z,2.90
2018-10-11T12:14:31.477Z,3.83
2018-10-11T12:17:06.570Z,4.50
2018-10-11T12:19:41.689Z,5.03
2018-10-11T12:22:16.201Z,3.60
2018-10-11T12:24:50.787Z,6.33
2018-10-11T12:27:25.303Z,3.53
2018-10-11T12:29:59.941Z,3.97
2018-10-11T12:32:34.529Z,3.03
2018-10-11T12:35:09.047Z,5.70
2018-10-11T12:37:43.750Z,6.30
2018-10-11T12:40:18.681Z,4.97
2018-10-11T12:42:53.689Z,3.90
2018-10-11T12:45:28.369Z,14.47
2018-10-11T12:48:02.998Z,4.50
2018-10-11T12:50:37.706Z,4.10
2018-10-11T12:53:12.205Z,3.10
2018-10-11T12:55:46.770Z,3.70
2018-10-11T12:58:26.005Z,5.80
2018-10-11T13:01:01.048Z,3.30
2018-10-11T13:03:37.010Z,4.00
2018-10-11T13:06:11.171Z,5.27
2018-10-11T13:08:45.712Z,4.40
2018-10-11T13:11:20.271Z,6.30
2018-10-11T13:13:56.158Z,4.50
2018-10-11T13:16:31.849Z,7.97
2018-10-11T13:19:06.998Z,5.37
2018-10-11T13:21:41.574Z,5.37
2018-10-11T13:24:16.240Z,8.90
2018-10-11T13:26:51.193Z,3.83
2018-10-11T13:29:25.876Z,4.67
2018-10-11T13:32:00.149Z,5.03
2018-10-11T13:34:34.786Z,5.93
2018-10-11T13:37:09.496Z,5.90
2018-10-11T13:39:50.531Z,7.97
2018-10-11T13:42:18.999Z,5.30
2018-10-11T13:44:53.335Z,10.37
2018-10-11T13:47:28.181Z,9.20
2018-10-11T13:50:02.661Z,5.37
2018-10-11T13:52:37.175Z,5.93
2018-10-11T13:55:14.190Z,5.40
2018-10-11T13:57:46.445Z,6.80
2018-10-11T14:00:21.644Z,8.00
2018-10-11T14:02:56.638Z,9.73
2018-10-11T14:05:31.265Z,4.03
2018-10-11T14:08:06.364Z,5.13
2018-10-11T14:10:40.664Z,7.20
2018-10-11T14:13:17.505Z,7.40
2018-10-11T14:15:49.727Z,9.57
2018-10-11T14:18:24.589Z,4.47
2018-10-11T14:20:59.085Z,6.40
2018-10-11T14:23:33.505Z,11.77
2018-10-11T14:26:07.995Z,5.43
2018-10-11T14:28:42.580Z,4.87
2018-10-11T14:31:17.242Z,6.17
2018-10-11T14:33:52.685Z,5.93
2018-10-11T14:36:27.964Z,6.13
2018-10-11T14:39:02.473Z,5.63
2018-10-11T14:41:37.604Z,6.23
2018-10-11T14:44:12.374Z,7.10
2018-10-11T14:46:47.349Z,6.03
2018-10-11T14:49:22.138Z,6.93
2018-10-11T14:51:56.441Z,6.13
2018-10-11T14:54:34.299Z,6.30
2018-10-11T14:57:09.087Z,7.20
2018-10-11T14:59:44.331Z,5.50
2018-10-11T15:02:18.409Z,7.57
2018-10-11T15:04:52.970Z,6.63
2018-10-11T15:07:27.390Z,11.60
2018-10-11T15:10:02.225Z,7.57
2018-10-11T15:12:37.289Z,6.20
2018-10-11T15:15:12.140Z,7.67
2018-10-11T15:17:46.750Z,4.80
2018-10-11T15:20:21.274Z,5.13
2018-10-11T15:22:55.907Z,12.03
2018-10-11T15:25:30.721Z,5.47
2018-10-11T15:28:06.487Z,6.47
2018-10-11T15:30:41.144Z,9.13
2018-10-11T15:33:15.522Z,7.20
2018-10-11T15:35:50.144Z,5.20
2018-10-11T15:38:24.702Z,4.90
2018-10-11T15:40:59.347Z,5.50
2018-10-11T15:43:33.701Z,6.97
2018-10-11T15:46:08.272Z,6.90
2018-10-11T15:48:42.892Z,6.30
2018-10-11T15:51:17.389Z,6.40
2018-10-11T15:53:52.054Z,5.40
2018-10-11T15:56:26.886Z,5.37
2018-10-11T15:59:01.452Z,8.07
2018-10-11T16:01:36.050Z,5.00
2018-10-11T16:04:11.187Z,9.30
2018-10-11T16:06:45.750Z,8.10
2018-10-11T16:09:20.308Z,7.10
2018-10-11T16:11:56.007Z,10.23
2018-10-11T16:14:30.391Z,10.27
2018-10-11T16:17:05.050Z,8.33
2018-10-11T16:19:39.549Z,6.77
2018-10-11T16:22:14.205Z,7.80
2018-10-11T16:24:49.081Z,8.43
2018-10-11T16:27:23.316Z,7.50
2018-10-11T16:29:57.869Z,8.20
2018-10-11T16:32:32.516Z,8.13
2018-10-11T16:35:07.503Z,7.53
2018-10-11T16:37:41.678Z,7.00
2018-10-11T16:40:16.246Z,6.87
2018-10-11T16:42:50.886Z,8.67
2018-10-11T16:45:25.986Z,10.30
2018-10-11T16:48:00.238Z,12.17
2018-10-11T16:50:34.885Z,15.90
2018-10-11T16:53:09.349Z,15.00
2018-10-11T16:55:44.037Z,10.37
2018-10-11T16:58:18.793Z,12.23
2018-10-11T17:00:53.269Z,12.77
2018-10-11T17:03:27.847Z,9.13
2018-10-11T17:06:02.331Z,11.10
2018-10-11T17:08:37.229Z,9.00
2018-10-11T17:11:11.485Z,13.60
2018-10-11T17:13:46.545Z,13.30
2018-10-11T17:16:20.840Z,10.90
2018-10-11T17:18:55.215Z,15.97
2018-10-11T17:21:30.144Z,14.47
2018-10-11T17:24:04.368Z,14.60
2018-10-11T17:26:39.151Z,13.70
2018-10-11T17:29:13.761Z,15.33
2018-10-11T17:31:48.395Z,12.33
2018-10-11T17:34:23.178Z,13.10
2018-10-11T17:36:58.709Z,15.50
2018-10-11T17:39:33.882Z,14.17
2018-10-11T17:42:08.785Z,13.03
2018-10-11T17:44:44.051Z,16.90
2018-10-11T17:47:20.350Z,14.40
2018-10-11T17:49:54.726Z,11.80
2018-10-11T17:52:29.593Z,14.33
2018-10-11T17:55:03.948Z,14.37
2018-10-11T17:57:38.330Z,14.60
2018-10-11T18:00:13.108Z,20.37
2018-10-11T18:02:47.705Z,16.40
2018-10-11T18:05:22.309Z,17.17
2018-10-11T18:07:56.896Z,14.10
2018-10-11T18:10:38.187Z,15.63
2018-10-11T18:13:13.091Z,16.20
2018-10-11T18:15:47.642Z,17.30
2018-10-11T18:18:22.193Z,13.73
2018-10-11T18:20:57.432Z,12.90
2018-10-11T18:23:32.674Z,13.80
2018-10-11T18:26:07.501Z,14.20
2018-10-11T18:28:41.918Z,15.83
2018-10-11T18:31:16.330Z,15.17
2018-10-11T18:33:51.329Z,14.63
2018-10-11T18:36:26.358Z,14.00
2018-10-11T18:39:02.337Z,19.10
2018-10-11T18:41:36.698Z,17.47
2018-10-11T18:44:11.606Z,15.97
2018-10-11T18:46:46.737Z,18.50
2018-10-11T18:49:21.418Z,15.80
2018-10-11T18:51:56.552Z,15.27
2018-10-11T18:54:31.959Z,19.53
2018-10-11T18:57:06.429Z,18.47
2018-10-11T18:59:41.378Z,13.57
2018-10-11T19:02:15.679Z,16.97
2018-10-11T19:04:50.516Z,16.43
2018-10-11T19:07:24.670Z,14.53
2018-10-11T19:09:59.365Z,14.60
2018-10-11T19:12:34.834Z,15.47
2018-10-11T19:15:09.502Z,13.53
2018-10-11T19:17:44.136Z,12.43
2018-10-11T19:20:18.756Z,19.40
2018-10-11T19:22:53.216Z,11.87
2018-10-11T19:25:27.745Z,14.17
2018-10-11T19:28:02.246Z,15.17
2018-10-11T19:30:36.773Z,13.37
2018-10-11T19:33:11.366Z,12.13
2018-10-11T19:35:47.143Z,12.13
2018-10-11T19:38:21.504Z,12.97
2018-10-11T19:40:56.008Z,10.50
2018-10-11T19:43:30.602Z,12.70
2018-10-11T19:46:05.316Z,13.40
2018-10-11T19:48:40.113Z,11.03
2018-10-11T19:51:14.519Z,10.23
2018-10-11T19:53:49.326Z,10.77
2018-10-11T19:56:23.734Z,10.80
2018-10-11T19:58:58.385Z,12.90
2018-10-11T20:01:33.004Z,12.87
2018-10-11T20:04:07.422Z,13.53
2018-10-11T20:06:42.086Z,13.67
2018-10-11T20:09:16.366Z,16.07
2018-10-11T20:11:50.734Z,12.03
2018-10-11T20:14:25.420Z,14.73
2018-10-11T20:17:00.001Z,13.90
2018-10-11T20:19:34.679Z,17.17
2018-10-11T20:22:10.283Z,14.57
2018-10-11T20:24:44.859Z,15.60
2018-10-11T20:27:19.425Z,17.37
2018-10-11T20:29:54.095Z,18.13
2018-10-11T20:32:29.093Z,18.07
2018-10-11T20:35:04.238Z,17.17
2018-10-11T20:37:38.813Z,16.13
2018-10-11T20:40:13.450Z,15.97
2018-10-11T20:42:47.946Z,16.20
2018-10-11T20:45:23.778Z,13.03
2018-10-11T20:47:58.449Z,15.57
2018-10-11T20:50:33.061Z,14.50
2018-10-11T20:53:07.607Z,20.00
2018-10-11T20:55:42.023Z,13.80
2018-10-11T20:58:16.778Z,14.60
2018-10-11T21:00:51.327Z,11.83
2018-10-11T21:03:26.171Z,20.80
2018-10-11T21:06:00.643Z,12.00
2018-10-11T21:08:35.185Z,11.87
2018-10-11T21:11:09.680Z,13.27
2018-10-11T21:13:44.195Z,14.50
2018-10-11T21:16:18.801Z,14.90
2018-10-11T21:18:53.274Z,12.97
2018-10-11T21:21:27.930Z,13.03
2018-10-11T21:24:02.581Z,13.10
2018-10-11T21:26:37.529Z,12.30
2018-10-11T21:29:12.630Z,11.80
2018-10-11T21:31:47.357Z,16.30
2018-10-11T21:34:22.066Z,16.13
2018-10-11T21:36:56.652Z,11.97
2018-10-11T21:39:31.467Z,14.47
2018-10-11T21:42:05.809Z,13.13
2018-10-11T21:44:40.445Z,13.60
2018-10-11T21:47:15.047Z,18.00
2018-10-11T21:49:49.744Z,18.47
2018-10-11T21:52:24.681Z,14.10
2018-10-11T21:54:59.807Z,14.67
2018-10-11T21:57:34.892Z,12.43
2018-10-11T22:00:09.870Z,13.93
2018-10-11T22:02:44.257Z,11.70
2018-10-11T22:05:18.694Z,13.27
2018-10-11T22:07:53.119Z,14.83
2018-10-11T22:10:27.831Z,13.00
2018-10-11T22:13:02.622Z,16.63
2018-10-11T22:15:37.277Z,14.03
2018-10-11T22:18:11.634Z,14.10
2018-10-11T22:20:46.458Z,15.13
2018-10-11T22:23:21.412Z,14.13
2018-10-11T22:25:56.937Z,12.40
2018-10-11T22:28:31.147Z,10.40
2018-10-11T22:31:05.765Z,13.93
2018-10-11T22:33:40.849Z,10.23
2018-10-11T22:36:15.886Z,12.80
2018-10-11T22:38:50.331Z,14.87
2018-10-11T22:41:25.095Z,14.90
2018-10-11T22:43:59.685Z,10.30
2018-10-11T22:46:34.906Z,13.73
2018-10-11T22:49:10.578Z,14.43
2018-10-11T22:51:45.655Z,11.53
2018-10-11T22:54:20.275Z,15.50
2018-10-11T22:56:54.853Z,15.20
2018-10-11T22:59:29.483Z,11.70
2018-10-11T23:02:04.057Z,12.40
2018-10-11T23:04:38.734Z,11.33
2018-10-11T23:07:13.210Z,15.30
2018-10-11T23:09:47.605Z,10.77
2018-10-11T23:12:22.533Z,12.20
2018-10-11T23:14:56.931Z,13.07
2018-10-11T23:17:31.568Z,12.70
2018-10-11T23:20:05.977Z,12.53
2018-10-11T23:22:41.442Z,11.73
2018-10-11T23:25:16.038Z,12.87
2018-10-11T23:27:50.649Z,12.43
2018-10-11T23:30:25.292Z,10.50
2018-10-11T23:32:59.933Z,10.27
2018-10-11T23:35:34.562Z,11.23
2018-10-11T23:38:09.286Z,11.20
2018-10-11T23:40:43.818Z,9.93
2018-10-11T23:43:18.397Z,10.50
2018-10-11T23:45:52.966Z,9.33
2018-10-11T23:48:27.894Z,11.40
2018-10-11T23:51:02.307Z,11.33
2018-10-11T23:53:37.221Z,9.20
2018-10-11T23:56:11.411Z,11.57
2018-10-11T23:58:46.098Z,9.47
